Time;durP1;ratioP1;P1;durP2;ratioP2;P2;SDS_P1;SDS_P2;PMS_P1;PMS_P2;Temp;Humidity;BMP_temperature;BMP_pressure;BME280_temperature;BME280_humidity;BME280_pressure;Samples;Min_cycle;Max_cycle;Signal;HPM_P1;HPM_P2
2022/09/07 00:01:38;;;;;;;6.07;2.20;;;;;;;17.02;94.41;101383.44;5024249;28;20065;-71
2022/09/07 00:04:03;;;;;;;3.37;2.20;;;;;;;17.00;95.75;101374.50;5029848;28;20484;-71
2022/09/07 00:06:29;;;;;;;4.83;2.50;;;;;;;16.87;95.24;101385.69;5030311;28;20057;-71
2022/09/07 00:08:55;;;;;;;6.85;2.10;;;;;;;16.84;96.39;101388.88;5016589;28;20026;-71
2022/09/07 00:11:20;;;;;;;4.03;2.33;;;;;;;16.69;95.23;101380.06;5026038;28;20064;-71
2022/09/07 00:13:48;;;;;;;6.20;2.57;;;;;;;16.62;96.34;101380.13;5028154;28;20460;-70
2022/09/07 00:16:20;;;;;;;5.88;2.80;;;;;;;16.66;96.92;101369.47;5026360;28;20026;-70
2022/09/07 00:18:46;;;;;;;7.68;2.70;;;;;;;16.59;96.78;101355.66;5029488;28;20045;-70
2022/09/07 00:21:12;;;;;;;8.60;3.13;;;;;;;16.65;96.91;101340.94;5019139;28;20540;-70
2022/09/07 00:23:38;;;;;;;4.85;2.38;;;;;;;16.59;97.29;101336.31;5012047;28;20110;-70
2022/09/07 00:26:08;;;;;;;8.70;2.88;;;;;;;16.52;97.27;101327.22;5021766;28;20095;-70
2022/09/07 00:28:34;;;;;;;4.85;3.00;;;;;;;16.56;97.08;101322.06;5030987;28;20108;-70
2022/09/07 00:30:59;;;;;;;5.72;3.65;;;;;;;16.58;97.47;101314.38;5015826;28;20121;-70
2022/09/07 00:33:25;;;;;;;8.40;3.33;;;;;;;16.60;97.00;101313.09;5024109;28;20037;-70
2022/09/07 00:35:50;;;;;;;8.73;3.63;;;;;;;16.61;97.32;101312.06;5030454;28;20516;-69
2022/09/07 00:38:16;;;;;;;8.43;3.17;;;;;;;16.63;97.62;101309.03;5029905;28;20507;-69
2022/09/07 00:40:41;;;;;;;8.37;3.30;;;;;;;16.59;97.64;101310.59;5025626;28;20029;-69
2022/09/07 00:43:31;;;;;;;5.23;3.33;;;;;;;16.65;97.26;101307.75;5028499;28;20033;-70
2022/09/07 00:45:56;;;;;;;5.65;3.22;;;;;;;16.65;97.38;101310.50;5029560;28;20037;-69
2022/09/07 00:48:26;;;;;;;5.23;3.37;;;;;;;16.62;97.80;101313.75;5027365;28;20117;-69
2022/09/07 00:51:00;;;;;;;6.50;3.60;;;;;;;16.63;97.61;101309.91;5018817;28;20030;-69
2022/09/07 00:53:32;;;;;;;5.82;3.30;;;;;;;16.72;97.52;101316.84;5014504;28;20026;-70
2022/09/07 00:55:58;;;;;;;6.55;3.10;;;;;;;16.63;97.56;101314.56;5015556;28;20039;-70
2022/09/07 00:58:24;;;;;;;5.80;3.50;;;;;;;16.65;97.89;101318.81;5029620;28;20045;-70
2022/09/07 01:00:50;;;;;;;4.85;2.75;;;;;;;16.64;97.87;101322.66;5011191;28;20029;-69
2022/09/07 01:03:19;;;;;;;5.77;3.03;;;;;;;16.66;97.73;101334.31;5022787;28;20108;-70
2022/09/07 01:05:51;;;;;;;8.75;3.83;;;;;;;16.70;97.68;101332.81;5029367;28;20116;-70
2022/09/07 01:08:17;;;;;;;5.88;3.35;;;;;;;16.67;97.24;101349.03;5030995;28;20116;-69
2022/09/07 01:10:42;;;;;;;8.70;3.33;;;;;;;16.76;97.14;101381.72;5016868;28;20152;-69
2022/09/07 01:13:08;;;;;;;5.43;2.67;;;;;;;16.80;96.12;101396.81;5027496;28;20496;-69
2022/09/07 01:16:03;;;;;;;6.93;3.47;;;;;;;16.85;96.72;101409.94;5029644;28;20021;-69
2022/09/07 01:18:51;;;;;;;8.45;3.08;;;;;;;16.86;97.00;101414.44;5028275;28;20041;-70
2022/09/07 01:21:25;;;;;;;5.43;2.97;;;;;;;16.78;97.21;101417.47;5015950;28;20030;-72
2022/09/07 01:24:00;;;;;;;7.18;2.55;;;;;;;16.79;96.83;101410.84;5027367;28;20025;-71
2022/09/07 01:26:58;;;;;;;11.70;3.70;;;;;;;16.69;97.09;101393.91;5025844;28;20030;-71
2022/09/07 01:29:59;;;;;;;8.55;2.97;;;;;;;16.73;97.49;101370.25;5014251;28;20041;-70
2022/09/07 01:32:33;;;;;;;5.40;2.33;;;;;;;16.66;98.48;101373.06;5013632;28;20092;-70
2022/09/07 01:35:03;;;;;;;7.28;3.00;;;;;;;16.66;97.80;101370.28;5028765;28;20029;-70
2022/09/07 01:37:51;;;;;;;9.10;3.15;;;;;;;16.73;98.07;101362.81;5029182;28;20034;-70
2022/09/07 01:40:32;;;;;;;5.25;2.40;;;;;;;16.63;97.86;101350.53;5027080;28;20030;-70
2022/09/07 01:43:05;;;;;;;5.22;2.25;;;;;;;16.68;96.98;101343.25;5027424;28;20033;-70
2022/09/07 01:45:35;;;;;;;5.53;2.67;;;;;;;16.58;97.55;101339.28;5027119;28;20030;-70
2022/09/07 01:48:05;;;;;;;6.32;2.95;;;;;;;16.51;97.67;101335.72;5018463;28;20076;-70
2022/09/07 01:50:34;;;;;;;4.57;2.58;;;;;;;16.58;97.61;101331.00;5025343;28;20048;-70
2022/09/07 01:53:09;;;;;;;3.80;2.78;;;;;;;16.56;97.60;101336.78;5027196;28;20061;-70
2022/09/07 01:55:49;;;;;;;7.13;3.20;;;;;;;16.56;97.86;101344.22;5024398;28;20025;-70
2022/09/07 01:58:23;;;;;;;5.85;2.35;;;;;;;16.58;97.77;101350.34;5026794;28;20405;-70
2022/09/07 02:01:00;;;;;;;7.63;2.47;;;;;;;16.62;99.01;101359.91;5015885;28;20026;-70
2022/09/07 02:03:30;;;;;;;3.85;2.03;;;;;;;16.57;98.15;101354.19;5029058;28;20067;-70
2022/09/07 02:06:04;;;;;;;6.05;2.28;;;;;;;16.55;97.06;101353.59;5029365;28;20033;-69
2022/09/07 02:08:35;;;;;;;3.75;2.20;;;;;;;16.57;97.38;101345.91;5019850;28;20041;-70
2022/09/07 02:11:10;;;;;;;3.50;1.75;;;;;;;16.59;97.68;101352.91;5025967;28;20033;-70
2022/09/07 02:13:40;;;;;;;3.25;2.00;;;;;;;16.61;97.01;101359.06;5024236;28;20032;-70
2022/09/07 02:16:23;;;;;;;3.80;2.22;;;;;;;16.62;96.67;101363.53;5027719;28;20184;-69
2022/09/07 02:18:55;;;;;;;4.55;1.95;;;;;;;16.64;97.27;101382.69;5028505;28;20033;-70
2022/09/07 02:21:26;;;;;;;8.20;2.10;;;;;;;16.69;97.71;101388.38;5030155;28;20068;-70
2022/09/07 02:24:01;;;;;;;4.03;1.70;;;;;;;16.69;96.85;101388.38;5026916;28;20025;-70
2022/09/07 02:26:28;;;;;;;7.97;2.53;;;;;;;16.62;97.74;101376.50;5029606;28;20412;-72
2022/09/07 02:28:54;;;;;;;3.50;2.00;;;;;;;16.60;97.75;101378.66;5027975;28;20140;-72
2022/09/07 02:31:19;;;;;;;8.82;2.03;;;;;;;16.63;98.35;101387.34;5011279;28;20046;-71
2022/09/07 02:33:45;;;;;;;3.53;2.10;;;;;;;16.60;97.05;101370.34;5021462;28;20474;-71
2022/09/07 02:36:14;;;;;;;3.57;2.00;;;;;;;16.60;96.96;101367.59;5021711;28;20480;-72
2022/09/07 02:38:40;;;;;;;4.78;2.40;;;;;;;16.64;98.74;101369.69;5035990;28;20059;-71
2022/09/07 02:41:25;;;;;;;4.23;2.20;;;;;;;16.62;97.89;101360.75;5028095;28;20108;-71
2022/09/07 02:43:50;;;;;;;3.38;1.92;;;;;;;16.63;99.48;101365.22;5020416;28;20029;-70
2022/09/07 02:46:57;;;;;;;3.27;2.23;;;;;;;16.64;98.45;101366.09;5026905;28;20477;-70
2022/09/07 02:49:50;;;;;;;11.95;2.17;;;;;;;16.66;98.36;101356.47;5006621;28;20064;-70
2022/09/07 02:52:18;;;;;;;5.95;2.28;;;;;;;16.67;98.82;101346.25;5026788;28;20516;-70
2022/09/07 02:55:20;;;;;;;4.20;2.47;;;;;;;16.65;98.58;101343.69;5019109;28;20026;-70
2022/09/07 02:58:28;;;;;;;6.07;3.03;;;;;;;16.69;98.72;101347.72;5027302;28;20033;-70
2022/09/07 03:01:02;;;;;;;5.40;2.70;;;;;;;16.69;97.80;101330.25;5028374;28;20065;-70
2022/09/07 03:03:42;;;;;;;7.43;3.17;;;;;;;16.60;98.51;101337.16;5030796;28;20026;-71
2022/09/07 03:06:27;;;;;;;4.95;3.00;;;;;;;16.59;98.83;101339.06;5030579;28;20116;-69
2022/09/07 03:08:57;;;;;;;5.53;3.53;;;;;;;16.53;99.15;101334.44;5023021;28;20070;-70
2022/09/07 03:11:23;;;;;;;7.50;3.22;;;;;;;16.54;98.66;101340.84;5023053;28;20033;-70
2022/09/07 03:13:48;;;;;;;6.63;3.00;;;;;;;16.44;98.06;101330.25;5029562;28;20032;-70
2022/09/07 03:16:14;;;;;;;9.03;3.83;;;;;;;16.40;98.52;101328.16;5012981;28;20030;-70
2022/09/07 03:18:41;;;;;;;4.78;3.17;;;;;;;16.38;98.26;101316.44;5023774;28;20037;-71
2022/09/07 03:21:07;;;;;;;5.32;3.10;;;;;;;16.37;98.58;101323.03;5030062;28;20041;-70
2022/09/07 03:23:33;;;;;;;8.30;3.10;;;;;;;16.29;98.11;101318.63;5020812;28;20033;-70
2022/09/07 03:25:58;;;;;;;10.03;2.87;;;;;;;16.29;98.14;101317.78;5029127;28;20401;-71
2022/09/07 03:28:23;;;;;;;5.07;2.77;;;;;;;16.23;98.55;101321.44;5022893;28;20043;-71
2022/09/07 03:30:48;;;;;;;4.57;3.10;;;;;;;16.18;98.86;101322.09;5027508;28;20508;-70
2022/09/07 03:33:15;;;;;;;3.67;2.77;;;;;;;16.17;98.30;101317.63;5017729;28;20112;-69
2022/09/07 03:35:43;;;;;;;5.85;2.78;;;;;;;16.14;98.55;101328.28;5028647;28;20037;-69
2022/09/07 03:38:08;;;;;;;4.55;2.97;;;;;;;16.07;98.53;101328.31;5025739;28;20381;-69
2022/09/07 03:40:33;;;;;;;5.03;2.97;;;;;;;16.00;98.65;101321.16;5028668;28;20483;-70
2022/09/07 03:42:59;;;;;;;4.80;3.07;;;;;;;15.96;99.20;101320.72;5025656;28;20052;-70
2022/09/07 03:45:24;;;;;;;5.17;3.30;;;;;;;15.93;98.96;101323.94;5018407;28;20032;-70
2022/09/07 03:47:50;;;;;;;7.57;2.97;;;;;;;15.84;99.23;101333.56;5020168;28;20033;-70
2022/09/07 03:50:15;;;;;;;9.90;3.00;;;;;;;15.89;98.99;101336.50;5028795;28;20029;-70
2022/09/07 03:52:40;;;;;;;7.37;3.17;;;;;;;16.00;98.55;101340.50;5032479;28;20104;-70
2022/09/07 03:55:06;;;;;;;6.77;3.40;;;;;;;15.97;98.86;101339.03;5029601;28;20033;-70
2022/09/07 03:57:31;;;;;;;12.07;2.43;;;;;;;15.96;99.18;101340.06;5030938;28;20026;-70
2022/09/07 03:59:56;;;;;;;8.53;2.60;;;;;;;15.93;99.27;101332.25;5030381;28;20084;-71
2022/09/07 04:02:22;;;;;;;5.43;2.77;;;;;;;15.93;99.19;101345.19;5029698;28;20021;-70
2022/09/07 04:04:47;;;;;;;4.67;2.97;;;;;;;15.99;99.40;101347.06;5023267;28;20037;-70
2022/09/07 04:07:13;;;;;;;4.67;2.80;;;;;;;15.93;98.94;101347.97;5011955;28;20470;-70
2022/09/07 04:09:39;;;;;;;4.78;2.38;;;;;;;15.79;99.92;101349.09;5020810;28;20037;-70
2022/09/07 04:12:04;;;;;;;12.17;2.73;;;;;;;15.71;99.22;101332.75;5029180;28;20120;-70
2022/09/07 04:14:29;;;;;;;6.00;2.83;;;;;;;15.72;99.49;101328.94;5030063;28;20062;-70
2022/09/07 04:16:55;;;;;;;4.53;3.20;;;;;;;15.71;100.00;101319.81;5027956;28;20097;-70
2022/09/07 04:19:20;;;;;;;4.77;3.07;;;;;;;15.67;99.55;101318.53;5023354;28;20064;-70
2022/09/07 04:21:46;;;;;;;4.30;3.00;;;;;;;15.67;99.88;101325.97;5029261;28;20026;-70
2022/09/07 04:24:13;;;;;;;7.63;3.37;;;;;;;15.63;99.73;101327.50;5028330;28;20032;-70
2022/09/07 04:26:38;;;;;;;5.55;3.40;;;;;;;15.52;99.60;101314.38;5030729;28;20033;-69
2022/09/07 04:29:05;;;;;;;6.53;2.90;;;;;;;15.46;99.46;101321.59;5017271;28;20088;-70
2022/09/07 04:31:32;;;;;;;3.95;2.78;;;;;;;15.44;100.00;101332.03;5026915;28;20065;-70
2022/09/07 04:33:58;;;;;;;4.75;2.97;;;;;;;15.42;100.00;101317.56;5025615;28;20751;-70
2022/09/07 04:36:23;;;;;;;5.43;3.40;;;;;;;15.39;100.00;101319.91;5027236;28;20033;-70
2022/09/07 04:38:54;;;;;;;6.70;3.43;;;;;;;15.41;100.00;101320.53;5016067;28;20112;-70
2022/09/07 04:41:19;;;;;;;4.25;3.40;;;;;;;15.38;100.00;101326.50;5015463;28;20033;-70
2022/09/07 04:43:45;;;;;;;7.43;3.50;;;;;;;15.29;100.00;101330.53;5028926;28;20038;-70
2022/09/07 04:46:21;;;;;;;8.65;3.33;;;;;;;15.35;100.00;101314.00;5011817;28;20433;-70
2022/09/07 04:48:51;;;;;;;4.75;2.88;;;;;;;15.32;100.00;101310.78;5028663;28;20481;-70
2022/09/07 04:51:18;;;;;;;5.80;3.60;;;;;;;15.34;100.00;101308.69;5030348;28;20056;-70
2022/09/07 04:53:47;;;;;;;6.22;4.13;;;;;;;15.31;100.00;101309.91;5019341;28;20480;-70
2022/09/07 04:56:12;;;;;;;4.38;3.22;;;;;;;15.31;100.00;101309.09;5029223;28;20028;-71
2022/09/07 04:58:38;;;;;;;11.13;3.73;;;;;;;15.30;100.00;101305.47;5028975;28;20101;-70
2022/09/07 05:01:05;;;;;;;7.27;3.93;;;;;;;15.33;100.00;101301.47;5020726;28;20030;-70
2022/09/07 05:03:33;;;;;;;9.90;4.55;;;;;;;15.34;100.00;101304.00;5016877;28;20033;-70
2022/09/07 05:06:06;;;;;;;6.50;4.40;;;;;;;15.30;100.00;101301.84;5024817;28;20038;-70
2022/09/07 05:08:40;;;;;;;4.55;3.63;;;;;;;15.36;100.00;101299.13;5014933;28;20091;-71
2022/09/07 05:11:06;;;;;;;6.85;4.63;;;;;;;15.38;100.00;101294.22;5016197;28;20037;-71
2022/09/07 05:13:32;;;;;;;6.07;4.68;;;;;;;15.37;100.00;101292.53;5027648;28;20040;-71
2022/09/07 05:15:58;;;;;;;7.17;4.93;;;;;;;15.35;100.00;101297.41;5027452;28;20033;-71
2022/09/07 05:18:24;;;;;;;8.82;5.20;;;;;;;15.39;100.00;101292.31;5029098;28;20026;-71
2022/09/07 05:20:50;;;;;;;8.88;6.07;;;;;;;15.39;100.00;101298.69;5026160;28;20374;-71
2022/09/07 05:23:15;;;;;;;7.33;5.20;;;;;;;15.30;100.00;101301.84;5027467;28;20037;-71
2022/09/07 05:25:45;;;;;;;9.17;5.37;;;;;;;15.30;100.00;101307.38;5014850;28;20121;-71
2022/09/07 05:28:11;;;;;;;8.30;5.60;;;;;;;15.39;100.00;101309.72;5028266;28;20056;-71
2022/09/07 05:30:36;;;;;;;9.98;6.57;;;;;;;15.56;100.00;101315.59;5028618;28;20029;-71
2022/09/07 05:33:02;;;;;;;9.83;6.30;;;;;;;15.62;100.00;101318.34;5026130;28;20688;-71
2022/09/07 05:35:28;;;;;;;13.20;7.03;;;;;;;15.61;100.00;101318.56;5023771;28;20029;-71
2022/09/07 05:37:53;;;;;;;10.50;6.90;;;;;;;15.65;100.00;101319.84;5022800;28;20311;-71
2022/09/07 05:40:18;;;;;;;19.87;7.70;;;;;;;15.70;100.00;101322.78;5025490;28;20466;-70
2022/09/07 05:42:44;;;;;;;9.77;7.20;;;;;;;15.75;100.00;101315.50;5026452;28;20117;-70
2022/09/07 05:45:09;;;;;;;10.83;7.03;;;;;;;15.72;100.00;101323.41;5026780;28;20083;-71
2022/09/07 05:47:36;;;;;;;14.53;7.73;;;;;;;15.72;100.00;101323.41;5025891;28;20029;-71
2022/09/07 05:50:03;;;;;;;9.85;7.90;;;;;;;15.71;100.00;101325.34;5029077;28;20029;-71
2022/09/07 05:52:28;;;;;;;13.23;8.25;;;;;;;15.79;100.00;101330.59;5015083;28;20030;-71
2022/09/07 05:54:54;;;;;;;10.63;8.23;;;;;;;15.83;100.00;101328.22;5020727;28;20078;-70
2022/09/07 05:57:19;;;;;;;14.90;8.27;;;;;;;15.84;100.00;101332.72;5026966;28;20029;-70
2022/09/07 05:59:45;;;;;;;11.00;7.97;;;;;;;15.83;100.00;101337.38;5023699;28;20498;-70
2022/09/07 06:02:14;;;;;;;15.63;7.67;;;;;;;15.95;100.00;101343.09;5024582;28;20401;-71
2022/09/07 06:04:39;;;;;;;24.45;8.73;;;;;;;15.83;100.00;101339.28;5025300;28;20087;-70
2022/09/07 06:07:04;;;;;;;10.80;8.33;;;;;;;15.83;100.00;101331.00;5022583;28;20092;-71
2022/09/07 06:09:30;;;;;;;10.97;7.87;;;;;;;15.82;100.00;101341.22;5019314;28;20034;-70
2022/09/07 06:11:55;;;;;;;11.77;8.47;;;;;;;15.82;100.00;101343.13;5017129;28;20026;-70
2022/09/07 06:14:20;;;;;;;15.53;9.23;;;;;;;15.84;100.00;101347.38;5024014;28;20119;-71
2022/09/07 06:16:46;;;;;;;11.53;8.47;;;;;;;15.81;100.00;101345.06;5020573;28;20504;-71
2022/09/07 06:19:11;;;;;;;10.87;8.60;;;;;;;15.82;100.00;101349.50;5024445;28;20393;-71
2022/09/07 06:21:37;;;;;;;15.90;9.07;;;;;;;15.87;100.00;101338.66;5028154;28;20025;-71
2022/09/07 06:24:04;;;;;;;10.87;8.53;;;;;;;15.99;100.00;101344.31;5023031;28;20034;-71
2022/09/07 06:26:29;;;;;;;;;;;;;;;16.09;99.81;101345.56;5027397;28;20065;-69
2022/09/07 06:28:55;;;;;;;11.13;8.02;;;;;;;16.15;100.00;101352.09;5027638;28;20022;-70
2022/09/07 06:31:21;;;;;;;13.00;9.27;;;;;;;16.20;100.00;101355.03;5021545;28;20156;-70
2022/09/07 06:33:47;;;;;;;;;;;;;;;16.21;100.00;101351.19;5020512;28;20105;-70
2022/09/07 06:36:18;;;;;;;14.52;9.43;;;;;;;16.34;100.00;101349.19;5013330;28;20012;-70
2022/09/07 06:38:44;;;;;;;15.35;9.27;;;;;;;16.48;99.83;101361.91;5022307;28;20034;-70
2022/09/07 06:41:15;;;;;;;19.38;9.98;;;;;;;16.57;99.76;101359.72;5026270;28;20200;-70
2022/09/07 06:43:41;;;;;;;12.93;10.00;;;;;;;16.72;99.64;101363.03;5030037;28;20029;-70
2022/09/07 06:46:07;;;;;;;16.47;10.07;;;;;;;16.81;98.36;101358.91;5030833;28;20033;-70
2022/09/07 06:48:32;;;;;;;16.05;9.95;;;;;;;16.97;98.18;101358.34;5034125;28;20061;-70
2022/09/07 06:51:00;;;;;;;25.23;11.50;;;;;;;17.05;97.13;101363.59;5025011;28;20485;-70
2022/09/07 06:53:28;;;;;;;16.63;11.38;;;;;;;17.16;95.81;101362.84;5033701;28;20029;-70
2022/09/07 06:55:54;;;;;;;17.90;11.57;;;;;;;17.17;95.66;101364.53;5026610;28;20120;-70
2022/09/07 06:58:19;;;;;;;16.70;10.93;;;;;;;17.25;95.94;101367.03;5027626;28;20047;-70
2022/09/07 07:00:45;;;;;;;17.33;10.47;;;;;;;17.21;95.54;101376.84;5019389;28;20385;-70
2022/09/07 07:03:10;;;;;;;20.13;10.80;;;;;;;17.33;95.64;101375.03;5028892;28;20473;-70
2022/09/07 07:05:35;;;;;;;19.50;9.37;;;;;;;17.53;95.06;101381.25;5021828;28;20041;-70
2022/09/07 07:08:01;;;;;;;13.17;10.63;;;;;;;17.67;92.95;101378.09;5027064;28;20538;-70
2022/09/07 07:10:26;;;;;;;17.90;11.73;;;;;;;18.11;92.96;101386.09;5027755;28;20030;-70
2022/09/07 07:12:55;;;;;;;16.27;11.77;;;;;;;18.46;92.57;101381.56;5025943;28;20108;-70
2022/09/07 07:15:21;;;;;;;17.73;11.40;;;;;;;18.54;92.46;101384.03;5028406;28;20428;-70
2022/09/07 07:17:47;;;;;;;16.70;12.45;;;;;;;18.75;90.60;101385.41;5027965;28;20060;-70
2022/09/07 07:20:12;;;;;;;19.77;11.33;;;;;;;18.67;90.56;101381.03;5027284;28;20496;-71
2022/09/07 07:22:37;;;;;;;15.93;11.83;;;;;;;18.44;90.29;101374.56;5029035;28;20037;-70
2022/09/07 07:25:03;;;;;;;15.63;11.97;;;;;;;18.58;91.01;101373.31;5026970;28;20068;-70
2022/09/07 07:27:30;;;;;;;24.37;11.80;;;;;;;18.80;90.93;101377.22;5024222;28;20534;-70
2022/09/07 07:29:55;;;;;;;16.65;12.10;;;;;;;18.70;89.79;101377.81;5028994;28;20036;-70
2022/09/07 07:32:21;;;;;;;14.87;11.77;;;;;;;18.65;89.99;101376.81;5026168;28;20117;-71
2022/09/07 07:35:06;;;;;;;17.93;12.63;;;;;;;18.82;89.53;101398.09;5028197;28;20354;-70
2022/09/07 07:37:31;;;;;;;20.20;12.60;;;;;;;18.68;88.37;101393.84;5018691;28;20449;-70
2022/09/07 07:39:57;;;;;;;15.97;12.20;;;;;;;18.63;89.91;101396.47;5019271;28;20071;-71
2022/09/07 07:42:22;;;;;;;19.13;13.50;;;;;;;18.63;88.62;101403.97;5017526;28;20034;-71
2022/09/07 07:44:48;;;;;;;18.27;12.33;;;;;;;18.59;89.44;101399.97;5018004;28;20029;-71
2022/09/07 07:47:13;;;;;;;20.43;12.93;;;;;;;18.72;89.76;101406.16;5019834;28;20037;-71
2022/09/07 07:49:38;;;;;;;19.07;12.50;;;;;;;18.76;90.07;101406.53;5020453;28;20156;-71
2022/09/07 07:52:05;;;;;;;18.43;12.47;;;;;;;18.86;90.56;101407.66;5025226;28;20025;-70
2022/09/07 07:54:35;;;;;;;20.23;12.50;;;;;;;19.02;91.03;101406.97;5028625;28;20052;-70
2022/09/07 07:57:01;;;;;;;19.40;13.88;;;;;;;18.97;89.84;101408.75;5026552;28;20120;-71
2022/09/07 07:59:26;;;;;;;20.70;14.60;;;;;;;19.03;89.49;101408.66;5031154;28;20039;-71
2022/09/07 08:01:51;;;;;;;18.97;15.17;;;;;;;18.95;89.32;101416.50;5025067;28;20026;-71
2022/09/07 08:04:17;;;;;;;21.27;14.23;;;;;;;18.97;88.57;101425.41;5029491;28;20473;-71
2022/09/07 08:06:42;;;;;;;23.97;14.47;;;;;;;18.98;89.40;101407.66;5022543;28;20032;-70
2022/09/07 08:09:08;;;;;;;19.50;14.47;;;;;;;18.96;90.23;101415.41;5023611;28;20038;-70
2022/09/07 08:11:34;;;;;;;24.10;15.23;;;;;;;18.97;89.76;101408.75;5015894;28;20026;-70
2022/09/07 08:14:04;;;;;;;23.00;14.02;;;;;;;19.00;89.14;101400.78;5030241;28;20030;-72
2022/09/07 08:16:30;;;;;;;17.92;14.05;;;;;;;18.94;89.87;101400.91;5029438;28;20122;-71
2022/09/07 08:18:56;;;;;;;22.20;15.20;;;;;;;19.14;89.25;101402.28;5018180;28;20560;-71
2022/09/07 08:21:21;;;;;;;21.15;16.45;;;;;;;19.17;88.91;101414.84;5029763;28;20060;-71
2022/09/07 08:23:47;;;;;;;20.23;15.83;;;;;;;19.17;87.75;101415.69;5023843;28;20056;-71
2022/09/07 08:26:12;;;;;;;20.97;15.03;;;;;;;19.26;88.60;101407.88;5029927;28;20057;-72
2022/09/07 08:28:39;;;;;;;19.93;15.23;;;;;;;19.34;87.29;101413.06;5023488;28;20041;-72
2022/09/07 08:31:06;;;;;;;21.75;15.38;;;;;;;19.40;87.78;101410.19;5024098;28;20435;-72
2022/09/07 08:33:35;;;;;;;19.10;14.88;;;;;;;19.52;87.00;101405.47;5026649;28;20037;-72
2022/09/07 08:36:02;;;;;;;22.42;15.93;;;;;;;19.59;85.33;101408.13;5026011;28;20477;-72
2022/09/07 08:38:29;;;;;;;17.20;14.05;;;;;;;19.70;86.26;101410.06;5021768;28;20041;-71
2022/09/07 08:40:55;;;;;;;19.77;13.93;;;;;;;19.78;85.38;101412.44;5022402;28;20017;-72
2022/09/07 08:43:32;;;;;;;16.20;13.35;;;;;;;19.88;86.41;101402.41;5032843;28;20119;-72
2022/09/07 08:46:05;;;;;;;19.38;13.35;;;;;;;19.89;85.28;101398.53;5027977;28;20047;-72
2022/09/07 08:48:33;;;;;;;20.13;14.52;;;;;;;20.04;85.03;101396.09;5026782;28;20453;-72
2022/09/07 08:51:07;;;;;;;17.10;13.00;;;;;;;20.14;84.81;101392.69;5022246;28;20057;-72
2022/09/07 08:53:40;;;;;;;20.38;12.68;;;;;;;20.22;84.05;101390.38;5020126;28;20022;-72
2022/09/07 08:56:17;;;;;;;16.98;11.52;;;;;;;20.12;83.18;101398.50;5027661;28;20473;-72
2022/09/07 08:58:49;;;;;;;17.60;11.18;;;;;;;20.31;83.62;101390.81;5028519;28;20048;-72
2022/09/07 09:01:17;;;;;;;14.90;10.25;;;;;;;20.37;83.23;101395.41;5026525;28;20030;-72
2022/09/07 09:03:42;;;;;;;16.33;9.50;;;;;;;20.47;81.56;101390.88;5022950;28;20400;-71
2022/09/07 09:06:34;;;;;;;18.87;9.57;;;;;;;20.38;81.29;101386.81;5029286;28;20030;-71
2022/09/07 09:09:38;;;;;;;9.23;7.40;;;;;;;20.45;79.64;101392.22;5027131;28;20305;-72
2022/09/07 09:12:15;;;;;;;11.82;6.57;;;;;;;20.65;77.85;101396.25;4997436;28;20523;-72
2022/09/07 09:14:43;;;;;;;;;;;;;;;20.90;78.99;101396.75;5022044;28;20017;-72
2022/09/07 09:17:21;;;;;;;13.05;6.97;;;;;;;20.91;77.79;101397.59;5026559;28;19921;-72
2022/09/07 09:20:11;;;;;;;16.95;7.57;;;;;;;20.97;79.73;101402.16;5028420;28;20053;-72
2022/09/07 09:22:37;;;;;;;15.85;7.18;;;;;;;20.99;79.25;101397.19;5026596;28;20030;-72
2022/09/07 09:25:15;;;;;;;9.43;7.17;;;;;;;21.23;78.42;101390.34;5025746;28;20021;-72
2022/09/07 09:27:40;;;;;;;9.10;6.10;;;;;;;21.49;77.48;101400.78;5028170;28;20297;-72
2022/09/07 09:30:15;;;;;;;14.50;6.00;;;;;;;21.61;75.96;101390.41;5026570;28;20029;-72
2022/09/07 09:32:46;;;;;;;13.80;4.53;;;;;;;21.38;73.97;101399.81;5017350;28;21852;-72
2022/09/07 09:35:18;;;;;;;9.52;4.22;;;;;;;21.50;75.01;101394.97;5026709;28;20073;-72
2022/09/07 09:37:44;;;;;;;7.85;3.30;;;;;;;21.44;73.87;101400.75;5028789;28;20035;-72
2022/09/07 09:40:24;;;;;;;6.47;3.53;;;;;;;21.39;73.59;101395.91;5028011;28;20048;-72
2022/09/07 09:43:05;;;;;;;7.95;2.90;;;;;;;21.83;74.09;101380.97;5028040;28;20029;-72
2022/09/07 09:45:36;;;;;;;12.68;3.92;;;;;;;22.09;73.91;101390.56;5026835;28;20116;-72
2022/09/07 09:48:09;;;;;;;8.93;2.83;;;;;;;22.12;72.74;101390.88;5026877;28;20061;-72
2022/09/07 09:50:37;;;;;;;5.78;1.98;;;;;;;21.97;69.20;101387.03;5025648;28;20021;-72
2022/09/07 09:53:04;;;;;;;7.30;2.47;;;;;;;21.95;69.19;101386.44;5025424;28;20037;-72
2022/09/07 09:55:33;;;;;;;9.40;2.20;;;;;;;21.98;67.74;101385.94;5014312;28;20393;-72
2022/09/07 09:58:01;;;;;;;5.03;2.30;;;;;;;22.29;68.90;101386.06;5023952;28;20069;-72
2022/09/07 10:00:30;;;;;;;10.00;3.00;;;;;;;22.25;68.75;101382.09;5019723;28;20532;-72
2022/09/07 10:03:14;;;;;;;7.68;2.20;;;;;;;22.41;68.91;101389.53;5028366;28;20109;-72
2022/09/07 10:05:44;;;;;;;7.97;2.30;;;;;;;22.29;68.61;101385.19;5027801;28;20212;-72
2022/09/07 10:08:15;;;;;;;4.68;1.90;;;;;;;22.40;67.87;101392.63;5020313;28;20041;-72
2022/09/07 10:10:49;;;;;;;7.38;2.65;;;;;;;22.16;70.04;101380.03;5031545;28;20505;-72
2022/09/07 10:13:26;;;;;;;6.45;2.00;;;;;;;22.18;67.06;101388.97;5034487;28;20037;-71
2022/09/07 10:15:54;;;;;;;6.28;2.10;;;;;;;22.10;68.28;101369.91;5033742;28;20079;-71
2022/09/07 10:18:31;;;;;;;8.25;2.40;;;;;;;22.44;68.17;101379.84;5030634;28;20045;-71
2022/09/07 10:21:21;;;;;;;9.47;2.50;;;;;;;22.59;67.74;101386.44;5034258;28;20072;-71
2022/09/07 10:23:51;;;;;;;12.15;2.75;;;;;;;23.08;nan;101376.00;5033543;28;20544;-71
2022/09/07 10:26:37;;;;;;;11.80;2.72;;;;;;;23.21;64.68;101378.41;5030116;28;20025;-71
2022/09/07 10:29:06;;;;;;;7.05;1.95;;;;;;;23.47;63.21;101372.72;5031244;28;20032;-71
2022/09/07 10:31:38;;;;;;;13.10;2.03;;;;;;;23.50;64.82;101376.94;5033002;28;20052;-71
2022/09/07 10:34:16;;;;;;;7.15;2.00;;;;;;;23.54;63.06;101378.91;5029132;28;20485;-71
2022/09/07 10:37:02;;;;;;;8.52;2.30;;;;;;;23.68;60.51;101379.31;5030045;28;20021;-70
2022/09/07 10:39:35;;;;;;;5.65;1.38;;;;;;;23.59;61.08;101375.31;5030553;28;20080;-71
2022/09/07 10:42:08;;;;;;;8.73;1.88;;;;;;;23.70;62.01;101379.88;5031683;28;20116;-71
2022/09/07 10:44:39;;;;;;;8.25;1.85;;;;;;;;;;5031613;28;20029;-71
2022/09/07 10:47:18;;;;;;;13.60;2.60;;;;;;;23.63;60.96;101382.06;5032531;28;20033;-71
2022/09/07 10:49:56;;;;;;;7.68;1.90;;;;;;;24.00;61.82;101380.09;5029296;28;20037;-71
2022/09/07 10:52:38;;;;;;;7.03;2.20;;;;;;;23.84;59.24;101369.88;5035087;28;20392;-71
2022/09/07 10:55:14;;;;;;;6.88;2.20;;;;;;;24.05;61.02;101371.69;5033406;28;20393;-71
2022/09/07 10:57:58;;;;;;;4.95;2.33;;;;;;;24.13;61.62;101359.97;5025706;28;20034;-70
2022/09/07 11:00:24;;;;;;;10.98;2.70;;;;;;;24.32;60.26;101358.38;5040708;28;20038;-71
2022/09/07 11:03:09;;;;;;;8.73;1.80;;;;;;;24.40;57.93;101363.44;5029384;28;20112;-71
2022/09/07 11:05:52;;;;;;;5.78;2.05;;;;;;;24.31;58.84;101363.13;5032098;28;20036;-72
2022/09/07 11:08:36;;;;;;;9.95;2.00;;;;;;;24.07;58.02;101361.06;5033788;28;20041;-71
2022/09/07 11:11:32;;;;;;;10.43;2.33;;;;;;;24.02;57.66;101361.03;5029200;28;20591;-71
2022/09/07 11:14:08;;;;;;;4.18;1.75;;;;;;;24.59;60.13;101359.88;5023315;28;20022;-71
2022/09/07 11:16:38;;;;;;;9.82;1.67;;;;;;;24.60;54.47;101357.91;5021497;28;20271;-70
2022/09/07 11:19:14;;;;;;;10.88;1.95;;;;;;;24.71;55.47;101352.03;5020949;28;20069;-71
2022/09/07 11:22:05;;;;;;;6.82;2.05;;;;;;;24.43;54.13;101365.69;5017515;28;20025;-71
2022/09/07 11:24:51;;;;;;;5.72;1.73;;;;;;;24.61;55.26;101360.44;5013691;28;20045;-73
2022/09/07 11:27:27;;;;;;;5.07;1.95;;;;;;;24.77;53.58;101355.69;5025935;28;20039;-72
2022/09/07 11:30:03;;;;;;;7.50;2.00;;;;;;;24.89;54.71;101359.06;5025130;28;20485;-72
2022/09/07 11:32:34;;;;;;;8.77;2.30;;;;;;;25.08;55.13;101361.03;5015692;28;20033;-72
2022/09/07 11:35:06;;;;;;;8.00;1.90;;;;;;;25.16;53.93;101359.63;5025745;28;20114;-72